createdAt,value
2023-05-22T00:04:11.299Z,21.9
2023-05-22T00:10:02.754Z,21.9
2023-05-22T00:15:37.912Z,21.9
2023-05-22T00:21:30.914Z,21.9
2023-05-22T00:27:22.499Z,21.9
2023-05-22T00:33:13.404Z,21.9
2023-05-22T00:39:05.612Z,21.9
2023-05-22T00:44:57.254Z,21.9
2023-05-22T00:50:48.455Z,21.9
2023-05-22T00:56:39.692Z,21.9
2023-05-22T01:02:31.964Z,21.9
2023-05-22T01:08:24.235Z,21.9
2023-05-22T01:14:16.081Z,21.9
2023-05-22T01:20:08.024Z,21.9
2023-05-22T01:25:59.568Z,21.9
2023-05-22T01:31:51.516Z,21.9
2023-05-22T01:37:43.273Z,21.9
2023-05-22T01:43:34.335Z,21.9
2023-05-22T01:49:27.061Z,21.9
2023-05-22T01:55:17.955Z,21.9
2023-05-22T02:01:09.198Z,21.9
2023-05-22T02:07:03.048Z,21.9
2023-05-22T02:12:54.721Z,21.9
2023-05-22T02:18:46.276Z,21.9
2023-05-22T02:24:23.159Z,21.9
2023-05-22T02:30:14.888Z,22.1
2023-05-22T02:36:06.371Z,22.3
2023-05-22T02:41:58.599Z,22.3
2023-05-22T02:47:50.604Z,22.3
2023-05-22T02:53:41.330Z,22.3
2023-05-22T02:59:33.354Z,22.2
2023-05-22T03:05:25.686Z,22.2
2023-05-22T03:11:16.960Z,22.2
2023-05-22T03:17:09.026Z,22.2
2023-05-22T03:23:01.114Z,22.2
2023-05-22T03:28:51.840Z,22.1
2023-05-22T03:34:44.552Z,22.1
2023-05-22T03:40:20.686Z,22.1
2023-05-22T03:46:13.592Z,22.1
2023-05-22T03:51:52.936Z,22.1
2023-05-22T03:57:44.342Z,22.1
2023-05-22T04:03:34.891Z,22.1
2023-05-22T04:09:27.240Z,22.1
2023-05-22T04:15:19.549Z,22.1
2023-05-22T04:21:10.319Z,22.1
2023-05-22T04:27:01.960Z,22.1
2023-05-22T04:32:38.487Z,22.1
2023-05-22T04:38:14.319Z,22.1
2023-05-22T04:44:07.815Z,22.1
2023-05-22T04:50:00.162Z,22.1
2023-05-22T04:55:53.237Z,22
2023-05-22T05:01:56.584Z,21.9
2023-05-22T05:07:50.023Z,21.8
2023-05-22T05:13:41.200Z,21.8
2023-05-22T05:19:35.427Z,21.7
2023-05-22T05:25:12.821Z,21.7
2023-05-22T05:31:03.563Z,21.6
2023-05-22T05:36:55.582Z,21.6
2023-05-22T05:42:31.501Z,28.4
2023-05-22T05:48:22.937Z,26.6
2023-05-22T05:54:14.528Z,26
2023-05-22T06:00:07.259Z,29.6
2023-05-22T06:06:00.889Z,30.3
2023-05-22T06:11:36.995Z,30.9
2023-05-22T06:17:30.089Z,31.2
2023-05-22T06:23:21.772Z,31.1
2023-05-22T06:29:13.432Z,31.1
2023-05-22T06:35:26.480Z,31.4
2023-05-22T06:41:17.893Z,31.9
2023-05-22T06:47:10.291Z,32.6
2023-05-22T06:53:02.426Z,33.2
2023-05-22T06:58:54.119Z,33.3
2023-05-22T07:04:47.154Z,33.3
2023-05-22T07:10:42.372Z,33.3
2023-05-22T07:16:35.784Z,33.4
2023-05-22T07:22:29.993Z,33.6
2023-05-22T07:28:22.161Z,33.9
2023-05-22T07:34:14.377Z,34.4
2023-05-22T07:40:06.948Z,34.9
2023-05-22T07:46:01.698Z,35.9
2023-05-22T07:51:53.658Z,36.5
2023-05-22T07:57:47.837Z,37.1
2023-05-22T08:03:40.940Z,37.8
2023-05-22T08:09:21.139Z,38.3
2023-05-22T08:15:37.995Z,38.9
2023-05-22T08:21:38.007Z,40
2023-05-22T08:27:14.820Z,40.8
2023-05-22T08:33:08.055Z,41.6
2023-05-22T08:39:00.888Z,42.7
2023-05-22T08:44:54.245Z,43.5
2023-05-22T08:50:47.040Z,44.3
2023-05-22T08:56:42.765Z,45
2023-05-22T09:02:39.633Z,45.5
2023-05-22T09:08:45.255Z,45.3
2023-05-22T09:14:38.170Z,44.8
2023-05-22T09:20:31.632Z,44.4
2023-05-22T09:26:37.802Z,43.9
2023-05-22T09:32:30.772Z,43.4
2023-05-22T09:38:23.328Z,43
2023-05-22T09:44:18.386Z,42.9
2023-05-22T09:50:11.666Z,43.3
2023-05-22T09:56:03.250Z,44.3
2023-05-22T10:02:14.011Z,44.8
2023-05-22T10:08:09.150Z,44.6
2023-05-22T10:14:05.018Z,44.6
2023-05-22T10:20:02.689Z,44.4
2023-05-22T10:25:56.272Z,44.2
2023-05-22T10:31:33.309Z,43.9
2023-05-22T10:37:37.784Z,43.4
2023-05-22T10:43:31.797Z,42.4
2023-05-22T10:49:10.967Z,41.9
2023-05-22T10:55:05.160Z,41.6
2023-05-22T11:00:59.114Z,41.4
2023-05-22T11:07:02.864Z,41.6
2023-05-22T11:12:58.661Z,41.8
2023-05-22T11:18:58.882Z,41.9
2023-05-22T11:25:00.060Z,42.3
2023-05-22T11:31:24.176Z,41.8
2023-05-22T11:37:02.315Z,41.4
2023-05-22T11:42:56.050Z,40.9
2023-05-22T11:48:51.749Z,39.7
2023-05-22T11:54:56.334Z,37.4
2023-05-22T12:00:51.739Z,35.6
2023-05-22T12:06:51.745Z,34.2
2023-05-22T12:12:47.964Z,32.8
2023-05-22T12:18:26.914Z,30.9
2023-05-22T12:24:22.642Z,32.3
2023-05-22T12:30:19.677Z,30.5
2023-05-22T12:36:14.211Z,29.1
2023-05-22T12:41:54.237Z,28.1
2023-05-22T12:47:49.490Z,27.3
2023-05-22T12:53:32.543Z,26.7
2023-05-22T12:59:28.070Z,26.2
2023-05-22T13:05:23.493Z,25.8
2023-05-22T13:11:03.092Z,25.4
2023-05-22T13:17:05.165Z,25
2023-05-22T13:23:08.008Z,24.8
2023-05-22T13:29:08.090Z,24.4
2023-05-22T13:34:51.704Z,24.3
2023-05-22T13:40:48.762Z,24.9
2023-05-22T13:46:44.092Z,29.1
2023-05-22T13:52:24.600Z,29.3
2023-05-22T13:58:18.111Z,32.4
2023-05-22T14:03:42.769Z,33.2
2023-05-22T14:09:20.691Z,33.7
2023-05-22T14:14:57.683Z,34.1
2023-05-22T14:20:34.946Z,34.3
2023-05-22T14:26:39.256Z,34.4
2023-05-22T14:32:32.214Z,34.9
2023-05-22T14:38:09.619Z,35.1
2023-05-22T14:43:30.818Z,34.8
2023-05-22T14:49:24.132Z,34.4
2023-05-22T14:55:29.484Z,34
2023-05-22T15:01:22.476Z,33.7
2023-05-22T15:07:16.961Z,33.3
2023-05-22T15:13:18.606Z,32.9
2023-05-22T15:19:11.782Z,32.6
2023-05-22T15:25:18.808Z,31.8
2023-05-22T15:31:11.590Z,31.6
2023-05-22T15:37:04.654Z,31.3
2023-05-22T15:43:08.348Z,31.1
2023-05-22T15:49:01.979Z,31.1
2023-05-22T15:54:56.329Z,30.9
2023-05-22T16:00:51.508Z,30.8
2023-05-22T16:06:29.283Z,30.8
2023-05-22T16:12:22.771Z,30.6
2023-05-22T16:18:20.265Z,30.4
2023-05-22T16:24:25.833Z,30.3
2023-05-22T16:30:21.396Z,30
2023-05-22T16:36:15.643Z,29.6
2023-05-22T16:41:53.636Z,29.1
2023-05-22T16:47:46.882Z,28.8
2023-05-22T16:53:39.784Z,28.4
2023-05-22T16:59:31.800Z,27.7
2023-05-22T17:05:25.850Z,27.1
2023-05-22T17:11:03.644Z,26.6
2023-05-22T17:16:56.057Z,26.1
2023-05-22T17:22:51.322Z,25.8
2023-05-22T17:28:41.180Z,25.4
2023-05-22T17:34:18.496Z,25.1
2023-05-22T17:40:10.682Z,24.7
2023-05-22T17:46:19.347Z,24.1
2023-05-22T17:52:11.802Z,23.5
2023-05-22T17:57:50.338Z,23.1
2023-05-22T18:03:12.580Z,22.8
2023-05-22T18:09:08.316Z,22.6
2023-05-22T18:15:16.469Z,22.3
2023-05-22T18:21:09.429Z,22.2
2023-05-22T18:26:46.330Z,22
2023-05-22T18:32:23.074Z,21.9
2023-05-22T18:38:16.680Z,21.8
2023-05-22T18:44:08.790Z,21.7
2023-05-22T18:50:02.212Z,21.6
2023-05-22T18:55:54.536Z,21.4
2023-05-22T19:01:47.568Z,21.4
2023-05-22T19:06:54.824Z,21.3
2023-05-22T19:12:20.337Z,21.3
2023-05-22T19:17:57.279Z,21.2
2023-05-22T19:23:19.263Z,21.3
2023-05-22T19:28:28.362Z,21.3
2023-05-22T19:34:06.649Z,21.4
2023-05-22T19:39:59.485Z,21.8
2023-05-22T19:45:52.457Z,22.3
2023-05-22T19:51:30.636Z,22.8
2023-05-22T19:57:22.981Z,23.4
2023-05-22T20:03:17.209Z,24.1
2023-05-22T20:08:38.609Z,24.7
2023-05-22T20:14:15.767Z,25.3
2023-05-22T20:19:53.890Z,25.8
2023-05-22T20:25:46.581Z,26.2
2023-05-22T20:31:39.274Z,26.5
2023-05-22T20:37:32.562Z,26.8
2023-05-22T20:43:25.511Z,26.9
2023-05-22T20:49:18.016Z,27.1
2023-05-22T20:54:54.882Z,27.1
2023-05-22T21:00:46.500Z,27.3
2023-05-22T21:06:40.008Z,27.3
2023-05-22T21:12:34.267Z,27.4
2023-05-22T21:18:26.768Z,27.4
2023-05-22T21:24:19.972Z,27.5
2023-05-22T21:30:12.448Z,27.5
2023-05-22T21:36:05.879Z,27.5
2023-05-22T21:41:58.518Z,27.5
2023-05-22T21:47:48.450Z,27.5
2023-05-22T21:53:42.080Z,27.6
2023-05-22T21:59:34.706Z,27.6
2023-05-22T22:05:28.199Z,27.6
2023-05-22T22:11:20.722Z,27.6
2023-05-22T22:17:13.436Z,27.5
2023-05-22T22:23:19.445Z,27.5
2023-05-22T22:29:11.512Z,27.5
2023-05-22T22:35:04.311Z,27.5
2023-05-22T22:40:59.500Z,27.5
2023-05-22T22:46:37.668Z,27.4
2023-05-22T22:52:14.949Z,27.4
2023-05-22T22:58:08.816Z,27.4
2023-05-22T23:04:00.697Z,27.4
2023-05-22T23:09:54.584Z,27.4
2023-05-22T23:15:47.439Z,27.4
2023-05-22T23:21:39.398Z,27.4
2023-05-22T23:26:49.064Z,27.4
2023-05-22T23:32:41.000Z,27.3
2023-05-22T23:38:16.633Z,27.3
2023-05-22T23:43:54.103Z,27.3
2023-05-22T23:49:31.009Z,27.3
2023-05-22T23:55:22.253Z,27.3
